createdAt,value
2023-03-24T00:00:35.877Z,97133.47
2023-03-24T00:03:04.000Z,97133.75
2023-03-24T00:05:32.198Z,97137.34
2023-03-24T00:08:02.619Z,97135.72
2023-03-24T00:10:34.946Z,97128.66
2023-03-24T00:13:03.569Z,97139.34
2023-03-24T00:15:31.712Z,97121.66
2023-03-24T00:17:59.932Z,97121.56
2023-03-24T00:20:29.469Z,97119.16
2023-03-24T00:22:59.103Z,97123.66
2023-03-24T00:25:33.974Z,97125.06
2023-03-24T00:28:03.068Z,97122.50
2023-03-24T00:30:31.668Z,97122.72
2023-03-24T00:33:01.956Z,97114.41
2023-03-24T00:35:30.673Z,97115.34
2023-03-24T00:37:58.835Z,97108.53
2023-03-24T00:40:28.790Z,97115.69
2023-03-24T00:42:56.922Z,97113.91
2023-03-24T00:45:25.005Z,97106.25
2023-03-24T00:47:54.901Z,97105.50
2023-03-24T00:50:27.172Z,97110.78
2023-03-24T00:52:58.411Z,97103.97
2023-03-24T00:55:28.748Z,97091.53
2023-03-24T00:57:57.373Z,97097.75
2023-03-24T01:00:27.553Z,97085.50
2023-03-24T01:02:57.395Z,97087.66
2023-03-24T01:05:28.101Z,97083.25
2023-03-24T01:07:58.152Z,97083.53
2023-03-24T01:10:28.174Z,97082.75
2023-03-24T01:12:58.197Z,97079.28
2023-03-24T01:15:29.521Z,97083.00
2023-03-24T01:17:58.450Z,97080.50
2023-03-24T01:20:26.769Z,97079.44
2023-03-24T01:22:54.904Z,97071.53
2023-03-24T01:25:25.721Z,97077.19
2023-03-24T01:27:55.259Z,97079.81
2023-03-24T01:30:25.761Z,97071.91
2023-03-24T01:32:54.680Z,97078.31
2023-03-24T01:35:28.475Z,97070.19
2023-03-24T01:37:57.706Z,97068.63
2023-03-24T01:40:28.691Z,97064.34
2023-03-24T01:42:59.402Z,97068.00
2023-03-24T01:45:52.755Z,97062.75
2023-03-24T01:48:25.265Z,97060.31
2023-03-24T01:50:57.544Z,97059.63
2023-03-24T01:53:26.775Z,97060.66
2023-03-24T01:55:56.182Z,97064.16
2023-03-24T01:58:33.185Z,97057.91
2023-03-24T02:01:13.771Z,97052.00
2023-03-24T02:04:12.204Z,97048.50
2023-03-24T02:06:44.151Z,97052.63
2023-03-24T02:09:15.082Z,97055.84
2023-03-24T02:11:44.244Z,97058.72
2023-03-24T02:14:14.624Z,97062.41
2023-03-24T02:16:55.489Z,97057.41
2023-03-24T02:19:59.196Z,97055.59
2023-03-24T02:22:54.186Z,97052.41
2023-03-24T02:26:05.416Z,97048.22
2023-03-24T02:28:45.282Z,97050.13
2023-03-24T02:31:42.504Z,97045.78
2023-03-24T02:34:46.435Z,97039.19
2023-03-24T02:37:46.853Z,97042.56
2023-03-24T02:40:28.087Z,97029.47
2023-03-24T02:43:14.337Z,97024.66
2023-03-24T02:45:51.729Z,97018.25
2023-03-24T02:48:29.973Z,97022.97
2023-03-24T02:51:09.628Z,97021.41
2023-03-24T02:53:47.757Z,97009.28
2023-03-24T02:56:32.730Z,97017.84
2023-03-24T02:59:16.801Z,97009.78
2023-03-24T03:01:54.348Z,97013.19
2023-03-24T03:04:39.890Z,97004.50
2023-03-24T03:07:12.901Z,97019.56
2023-03-24T03:09:45.168Z,97010.72
2023-03-24T03:12:16.289Z,97002.44
2023-03-24T03:14:50.362Z,97005.84
2023-03-24T03:17:23.778Z,96998.72
2023-03-24T03:19:58.192Z,96993.44
2023-03-24T03:22:34.080Z,96999.53
2023-03-24T03:25:04.641Z,96995.47
2023-03-24T03:27:39.315Z,97009.41
2023-03-24T03:30:14.731Z,97001.44
2023-03-24T03:32:46.222Z,97000.38
2023-03-24T03:35:19.279Z,96996.88
2023-03-24T03:37:54.261Z,96989.09
2023-03-24T03:40:25.824Z,96984.56
2023-03-24T03:43:01.878Z,96988.16
2023-03-24T03:45:30.193Z,96980.06
2023-03-24T03:47:58.509Z,96979.13
2023-03-24T03:50:26.799Z,96985.53
2023-03-24T03:52:55.856Z,96982.91
2023-03-24T03:55:24.015Z,96987.41
2023-03-24T03:57:52.279Z,96979.00
2023-03-24T04:00:27.453Z,96966.00
2023-03-24T04:03:28.521Z,96964.78
2023-03-24T04:06:04.226Z,96981.19
2023-03-24T04:08:44.627Z,96970.66
2023-03-24T04:11:27.530Z,96966.09
2023-03-24T04:14:39.067Z,96961.81
2023-03-24T04:17:42.823Z,96958.97
2023-03-24T04:20:20.076Z,96958.88
2023-03-24T04:23:04.428Z,96961.41
2023-03-24T04:25:41.025Z,96958.94
2023-03-24T04:28:19.865Z,96945.00
2023-03-24T04:30:52.404Z,96954.25
2023-03-24T04:33:30.395Z,96947.09
2023-03-24T04:36:06.904Z,96950.50
2023-03-24T04:38:42.781Z,96955.69
2023-03-24T04:41:18.086Z,96954.53
2023-03-24T04:43:55.443Z,96944.94
2023-03-24T04:46:24.809Z,96947.31
2023-03-24T04:48:58.489Z,96950.69
2023-03-24T04:51:35.592Z,96949.50
2023-03-24T04:54:12.313Z,96950.34
2023-03-24T04:56:48.540Z,96952.03
2023-03-24T04:59:23.880Z,96955.63
2023-03-24T05:01:52.546Z,96960.03
2023-03-24T05:04:37.151Z,96959.38
2023-03-24T05:07:24.093Z,96964.63
2023-03-24T05:09:57.502Z,96961.06
2023-03-24T05:12:25.736Z,96964.63
2023-03-24T05:15:13.286Z,96955.03
2023-03-24T05:17:42.996Z,96962.00
2023-03-24T05:20:15.241Z,96968.97
2023-03-24T05:22:47.183Z,96967.09
2023-03-24T05:25:16.044Z,96968.88
2023-03-24T05:27:44.405Z,96960.78
2023-03-24T05:30:24.942Z,96960.31
2023-03-24T05:32:59.480Z,96961.56
2023-03-24T05:35:29.074Z,96966.47
2023-03-24T05:37:57.513Z,96960.81
2023-03-24T05:40:25.644Z,96963.09
2023-03-24T05:43:12.385Z,96958.28
2023-03-24T05:45:45.450Z,96954.72
2023-03-24T05:48:23.540Z,96957.50
2023-03-24T05:51:14.978Z,96949.59
2023-03-24T05:53:43.444Z,96950.75
2023-03-24T05:56:19.960Z,96956.94
2023-03-24T05:59:06.846Z,96949.06
2023-03-24T06:01:56.986Z,96952.59
2023-03-24T06:04:49.424Z,96933.19
2023-03-24T06:07:22.262Z,96947.28
2023-03-24T06:09:52.685Z,96942.84
2023-03-24T06:12:22.946Z,96945.53
2023-03-24T06:14:58.327Z,96953.25
2023-03-24T06:17:28.717Z,96952.97
2023-03-24T06:20:04.403Z,96956.44
2023-03-24T06:22:52.325Z,96948.50
2023-03-24T06:25:28.867Z,96941.22
2023-03-24T06:28:12.356Z,96951.47
2023-03-24T06:30:45.095Z,96954.09
2023-03-24T06:33:15.248Z,96950.19
2023-03-24T06:35:45.238Z,96946.53
2023-03-24T06:38:18.236Z,96955.47
2023-03-24T06:40:47.077Z,96961.16
2023-03-24T06:43:15.959Z,96944.59
2023-03-24T06:45:46.332Z,96950.38
2023-03-24T06:48:20.031Z,96947.91
2023-03-24T06:50:49.099Z,96944.22
2023-03-24T06:53:21.828Z,96952.16
2023-03-24T06:55:50.845Z,96944.00
2023-03-24T06:58:21.547Z,96952.34
2023-03-24T07:01:06.049Z,96953.19
2023-03-24T07:03:37.046Z,96949.13
2023-03-24T07:06:40.253Z,96949.19
2023-03-24T07:09:17.779Z,96950.28
2023-03-24T07:11:46.565Z,96944.03
2023-03-24T07:14:15.768Z,96940.31
2023-03-24T07:16:44.502Z,96942.72
2023-03-24T07:19:33.687Z,96927.47
2023-03-24T07:22:21.263Z,96936.06
2023-03-24T07:25:09.984Z,96938.06
2023-03-24T07:28:00.977Z,96944.16
2023-03-24T07:30:39.878Z,96934.31
2023-03-24T07:33:12.377Z,96927.88
2023-03-24T07:35:42.835Z,96918.38
2023-03-24T07:38:11.363Z,96914.63
2023-03-24T07:40:41.087Z,96922.25
2023-03-24T07:43:09.289Z,96915.91
2023-03-24T07:46:03.823Z,96917.66
2023-03-24T07:48:34.392Z,96919.69
2023-03-24T07:51:02.548Z,96930.34
2023-03-24T07:53:49.199Z,96925.91
2023-03-24T07:56:28.228Z,96923.69
2023-03-24T07:58:59.111Z,96913.66
2023-03-24T08:01:43.023Z,96913.38
2023-03-24T08:04:14.727Z,96918.69
2023-03-24T08:06:59.883Z,96904.38
2023-03-24T08:09:27.965Z,96916.34
2023-03-24T08:11:58.991Z,96909.16
2023-03-24T08:14:30.746Z,96906.91
2023-03-24T08:16:59.046Z,96900.56
2023-03-24T08:19:27.597Z,96909.19
2023-03-24T08:21:56.050Z,96916.75
2023-03-24T08:24:24.184Z,96911.78
2023-03-24T08:26:52.770Z,96907.34
2023-03-24T08:29:22.289Z,96887.97
2023-03-24T08:31:50.391Z,96892.84
2023-03-24T08:34:19.262Z,96884.47
2023-03-24T08:36:47.471Z,96891.19
2023-03-24T08:39:15.522Z,96887.94
2023-03-24T08:41:43.660Z,96890.97
2023-03-24T08:44:11.819Z,96883.78
2023-03-24T08:46:41.566Z,96887.09
2023-03-24T08:49:10.265Z,96891.38
2023-03-24T08:51:38.341Z,96889.50
2023-03-24T08:54:06.578Z,96890.31
2023-03-24T08:56:34.700Z,96890.47
2023-03-24T08:59:04.645Z,96897.41
2023-03-24T09:01:34.118Z,96885.53
2023-03-24T09:04:04.067Z,96897.31
2023-03-24T09:06:33.025Z,96881.47
2023-03-24T09:09:01.154Z,96882.88
2023-03-24T09:11:29.307Z,96881.81
2023-03-24T09:13:57.539Z,96872.44
2023-03-24T09:16:25.784Z,96879.50
2023-03-24T09:18:53.968Z,96869.66
2023-03-24T09:21:23.432Z,96862.34
2023-03-24T09:23:51.493Z,96865.00
2023-03-24T09:26:19.669Z,96852.53
2023-03-24T09:28:47.793Z,96857.00
2023-03-24T09:31:16.108Z,96855.25
2023-03-24T09:33:44.169Z,96855.59
2023-03-24T09:36:12.898Z,96857.81
2023-03-24T09:38:42.426Z,96848.19
2023-03-24T09:41:18.003Z,96851.06
2023-03-24T09:43:51.155Z,96845.78
2023-03-24T09:46:27.836Z,96843.31
2023-03-24T09:48:57.783Z,96846.78
2023-03-24T09:51:27.651Z,96838.66
2023-03-24T09:54:10.108Z,96840.97
2023-03-24T09:56:40.871Z,96842.66
2023-03-24T09:59:14.844Z,96826.38
2023-03-24T10:01:43.106Z,96836.41
2023-03-24T10:04:16.623Z,96823.63
2023-03-24T10:06:44.876Z,96818.16
2023-03-24T10:09:25.441Z,96821.72
2023-03-24T10:12:07.354Z,96819.78
2023-03-24T10:14:48.074Z,96826.31
2023-03-24T10:17:26.912Z,96816.94
2023-03-24T10:20:01.075Z,96819.97
2023-03-24T10:22:37.753Z,96808.81
2023-03-24T10:25:16.130Z,96807.81
2023-03-24T10:27:50.102Z,96818.19
2023-03-24T10:30:20.845Z,96815.50
2023-03-24T10:32:49.251Z,96810.78
2023-03-24T10:35:21.022Z,96814.09
2023-03-24T10:37:50.014Z,96818.28
2023-03-24T10:40:22.677Z,96809.69
2023-03-24T10:43:07.193Z,96802.69
2023-03-24T10:45:40.728Z,96800.63
2023-03-24T10:48:09.588Z,96800.56
2023-03-24T10:50:44.174Z,96799.44
2023-03-24T10:53:19.804Z,96798.91
2023-03-24T10:55:50.929Z,96793.03
2023-03-24T10:58:29.301Z,96791.69
2023-03-24T11:01:00.126Z,96791.28
2023-03-24T11:03:32.312Z,96792.06
2023-03-24T11:06:02.123Z,96787.59
2023-03-24T11:08:35.742Z,96787.94
2023-03-24T11:11:15.154Z,96787.22
2023-03-24T11:13:44.002Z,96777.34
2023-03-24T11:16:14.872Z,96771.94
2023-03-24T11:18:57.887Z,96774.22
2023-03-24T11:21:27.600Z,96771.94
2023-03-24T11:23:59.150Z,96768.47
2023-03-24T11:26:33.831Z,96756.69
2023-03-24T11:29:04.796Z,96757.34
2023-03-24T11:31:38.369Z,96753.00
2023-03-24T11:34:10.706Z,96758.28
2023-03-24T11:36:47.378Z,96752.69
2023-03-24T11:39:19.528Z,96746.09
2023-03-24T11:42:01.784Z,96745.97
2023-03-24T11:44:33.812Z,96733.72
2023-03-24T11:47:05.756Z,96741.72
2023-03-24T11:49:40.558Z,96738.69
2023-03-24T11:52:21.747Z,96727.19
2023-03-24T11:54:49.893Z,96736.44
2023-03-24T11:57:32.646Z,96730.84
2023-03-24T12:00:10.975Z,96723.22
2023-03-24T12:02:57.786Z,96730.06
2023-03-24T12:05:34.446Z,96722.59
2023-03-24T12:08:24.853Z,96723.19
2023-03-24T12:11:07.955Z,96714.22
2023-03-24T12:13:41.089Z,96707.59
2023-03-24T12:16:31.125Z,96701.41
2023-03-24T12:19:25.704Z,96702.16
2023-03-24T12:22:05.833Z,96699.72
2023-03-24T12:24:49.212Z,96704.81
2023-03-24T12:27:28.544Z,96698.03
2023-03-24T12:30:05.607Z,96702.91
2023-03-24T12:32:43.221Z,96699.72
2023-03-24T12:35:38.281Z,96696.75
2023-03-24T12:38:35.940Z,96699.97
2023-03-24T12:41:52.670Z,96692.09
2023-03-24T12:45:08.485Z,96695.25
2023-03-24T12:47:59.439Z,96698.63
2023-03-24T12:50:44.549Z,96691.44
2023-03-24T12:53:36.998Z,96687.56
2023-03-24T12:56:11.280Z,96691.91
2023-03-24T12:58:44.688Z,96687.00
2023-03-24T13:01:20.620Z,96695.25
2023-03-24T13:03:55.508Z,96701.25
2023-03-24T13:06:29.332Z,96700.06
2023-03-24T13:09:08.175Z,96698.41
2023-03-24T13:11:44.947Z,96676.09
2023-03-24T13:14:19.289Z,96668.94
2023-03-24T13:16:49.343Z,96657.31
2023-03-24T13:19:24.615Z,96649.91
2023-03-24T13:21:55.006Z,96641.50
2023-03-24T13:24:23.848Z,96634.09
2023-03-24T13:27:01.816Z,96650.19
2023-03-24T13:30:08.768Z,96651.88
2023-03-24T13:32:40.206Z,96653.63
2023-03-24T13:35:19.533Z,96653.13
2023-03-24T13:37:52.293Z,96655.41
2023-03-24T13:40:24.554Z,96657.31
2023-03-24T13:42:56.289Z,96645.53
2023-03-24T13:45:39.094Z,96651.09
2023-03-24T13:48:19.748Z,96649.97
2023-03-24T13:50:57.616Z,96665.38
2023-03-24T13:53:34.510Z,96669.91
2023-03-24T13:56:04.990Z,96658.06
2023-03-24T13:59:07.975Z,96656.16
2023-03-24T14:01:39.206Z,96650.88
2023-03-24T14:04:28.279Z,96642.50
2023-03-24T14:06:59.005Z,96639.16
2023-03-24T14:09:29.442Z,96635.59
2023-03-24T14:12:20.773Z,96636.22
2023-03-24T14:15:15.666Z,96637.03
2023-03-24T14:17:49.012Z,96628.38
2023-03-24T14:20:36.146Z,96617.56
2023-03-24T14:23:06.090Z,96619.38
2023-03-24T14:25:36.899Z,96618.00
2023-03-24T14:28:22.482Z,96612.34
2023-03-24T14:31:03.494Z,96608.16
2023-03-24T14:33:32.025Z,96609.56
2023-03-24T14:36:06.480Z,96605.84
2023-03-24T14:38:39.239Z,96607.63
2023-03-24T14:41:13.923Z,96614.25
2023-03-24T14:43:59.128Z,96602.69
2023-03-24T14:46:40.073Z,96605.22
2023-03-24T14:49:18.603Z,96601.91
2023-03-24T14:51:53.934Z,96597.75
2023-03-24T14:54:29.950Z,96597.81
2023-03-24T14:56:59.712Z,96595.59
2023-03-24T14:59:44.728Z,96593.63
2023-03-24T15:02:29.362Z,96601.72
2023-03-24T15:05:24.986Z,96606.84
2023-03-24T15:08:05.649Z,96595.16
2023-03-24T15:10:40.360Z,96592.91
2023-03-24T15:13:30.288Z,96590.94
2023-03-24T15:15:59.297Z,96604.56
2023-03-24T15:18:27.745Z,96595.97
2023-03-24T15:20:55.885Z,96596.84
2023-03-24T15:23:25.923Z,96588.56
2023-03-24T15:25:56.426Z,96592.09
2023-03-24T15:28:27.498Z,96586.50
2023-03-24T15:30:57.336Z,96585.00
2023-03-24T15:33:26.144Z,96577.28
2023-03-24T15:35:57.696Z,96577.97
2023-03-24T15:38:30.285Z,96574.88
2023-03-24T15:41:04.174Z,96572.44
2023-03-24T15:43:32.372Z,96574.13
2023-03-24T15:46:11.765Z,96579.75
2023-03-24T15:48:40.436Z,96584.31
2023-03-24T15:51:11.755Z,96585.25
2023-03-24T15:53:44.234Z,96576.78
2023-03-24T15:56:26.607Z,96574.50
2023-03-24T15:58:57.113Z,96569.22
2023-03-24T16:01:36.162Z,96566.97
2023-03-24T16:04:07.122Z,96569.66
2023-03-24T16:06:36.843Z,96574.69
2023-03-24T16:09:08.760Z,96570.88
2023-03-24T16:11:38.276Z,96574.75
2023-03-24T16:14:24.070Z,96565.16
2023-03-24T16:16:55.482Z,96568.97
2023-03-24T16:19:24.363Z,96560.13
2023-03-24T16:21:52.454Z,96559.81
2023-03-24T16:24:20.840Z,96561.94
2023-03-24T16:26:50.397Z,96553.91
2023-03-24T16:29:20.336Z,96567.38
2023-03-24T16:31:51.494Z,96565.38
2023-03-24T16:34:20.972Z,96579.41
2023-03-24T16:36:50.630Z,96571.94
2023-03-24T16:39:20.327Z,96572.88
2023-03-24T16:41:48.501Z,96576.19
2023-03-24T16:44:18.337Z,96580.28
2023-03-24T16:46:47.505Z,96582.66
2023-03-24T16:49:17.837Z,96580.31
2023-03-24T16:51:47.083Z,96570.59
2023-03-24T16:54:15.644Z,96580.00
2023-03-24T16:56:43.991Z,96577.34
2023-03-24T16:59:12.601Z,96584.59
2023-03-24T17:01:45.378Z,96579.56
2023-03-24T17:04:16.560Z,96579.59
2023-03-24T17:06:47.185Z,96584.16
2023-03-24T17:09:15.835Z,96577.97
2023-03-24T17:11:46.627Z,96576.63
2023-03-24T17:14:15.584Z,96582.16
2023-03-24T17:16:46.671Z,96577.81
2023-03-24T17:19:16.744Z,96577.47
2023-03-24T17:21:50.529Z,96569.56
2023-03-24T17:24:20.983Z,96575.94
2023-03-24T17:26:50.234Z,96572.75
2023-03-24T17:29:19.336Z,96571.91
2023-03-24T17:31:49.446Z,96574.06
2023-03-24T17:34:21.608Z,96574.34
2023-03-24T17:36:51.864Z,96586.84
2023-03-24T17:39:22.663Z,96583.28
2023-03-24T17:41:51.831Z,96587.41
2023-03-24T17:44:21.608Z,96602.13
2023-03-24T17:46:52.704Z,96617.59
2023-03-24T17:49:22.091Z,96622.94
2023-03-24T17:51:51.486Z,96630.22
2023-03-24T17:54:20.989Z,96623.34
2023-03-24T17:56:52.010Z,96621.84
2023-03-24T17:59:22.252Z,96621.09
2023-03-24T18:01:54.864Z,96625.44
2023-03-24T18:04:24.337Z,96627.59
2023-03-24T18:06:52.894Z,96635.41
2023-03-24T18:09:21.982Z,96650.41
2023-03-24T18:11:50.614Z,96661.97
2023-03-24T18:14:20.070Z,96671.47
2023-03-24T18:16:49.598Z,96676.03
2023-03-24T18:19:20.545Z,96677.88
2023-03-24T18:21:50.204Z,96686.16
2023-03-24T18:24:20.248Z,96698.56
2023-03-24T18:26:50.550Z,96699.41
2023-03-24T18:29:22.141Z,96707.00
2023-03-24T18:31:52.014Z,96713.19
2023-03-24T18:34:23.258Z,96720.81
2023-03-24T18:36:53.369Z,96721.66
2023-03-24T18:39:23.110Z,96717.69
2023-03-24T18:41:53.643Z,96716.16
2023-03-24T18:44:24.185Z,96717.25
2023-03-24T18:46:54.852Z,96716.16
2023-03-24T18:49:26.105Z,96707.69
2023-03-24T18:51:55.416Z,96694.25
2023-03-24T18:54:25.647Z,96701.56
2023-03-24T18:56:56.437Z,96707.81
2023-03-24T18:59:28.481Z,96703.06
2023-03-24T19:01:58.663Z,96708.50
2023-03-24T19:04:29.500Z,96707.44
2023-03-24T19:07:03.266Z,96714.75
2023-03-24T19:09:33.107Z,96712.22
2023-03-24T19:12:02.325Z,96709.31
2023-03-24T19:14:32.326Z,96715.09
2023-03-24T19:17:02.999Z,96720.28
2023-03-24T19:19:33.848Z,96719.19
2023-03-24T19:22:04.152Z,96716.25
2023-03-24T19:24:37.727Z,96723.19
2023-03-24T19:27:09.000Z,96712.66
2023-03-24T19:29:38.246Z,96710.72
2023-03-24T19:32:08.575Z,96717.59
2023-03-24T19:34:41.589Z,96713.69
2023-03-24T19:37:11.994Z,96712.44
2023-03-24T19:39:45.791Z,96706.84
2023-03-24T19:42:16.806Z,96715.72
2023-03-24T19:44:47.632Z,96720.94
2023-03-24T19:47:17.682Z,96721.66
2023-03-24T19:49:50.100Z,96712.28
2023-03-24T19:52:19.119Z,96732.22
2023-03-24T19:54:53.113Z,96721.53
2023-03-24T19:57:23.791Z,96719.44
2023-03-24T19:59:53.448Z,96729.41
2023-03-24T20:02:23.193Z,96732.38
2023-03-24T20:04:56.655Z,96735.59
2023-03-24T20:07:27.694Z,96736.59
2023-03-24T20:10:02.210Z,96736.47
2023-03-24T20:12:32.423Z,96737.16
2023-03-24T20:15:05.978Z,96732.22
2023-03-24T20:17:37.972Z,96736.19
2023-03-24T20:20:12.321Z,96741.78
2023-03-24T20:22:46.484Z,96745.72
2023-03-24T20:25:18.722Z,96738.44
2023-03-24T20:27:48.988Z,96749.63
2023-03-24T20:30:21.004Z,96753.84
2023-03-24T20:32:54.167Z,96756.09
2023-03-24T20:35:28.761Z,96757.06
2023-03-24T20:37:57.979Z,96756.50
2023-03-24T20:40:30.770Z,96755.38
2023-03-24T20:43:01.637Z,96754.69
2023-03-24T20:45:31.537Z,96760.28
2023-03-24T20:48:01.655Z,96758.44
2023-03-24T20:50:32.971Z,96763.78
2023-03-24T20:53:02.869Z,96768.41
2023-03-24T20:55:33.155Z,96767.28
2023-03-24T20:58:04.145Z,96768.41
2023-03-24T21:00:35.257Z,96775.69
2023-03-24T21:03:05.052Z,96778.19
2023-03-24T21:05:36.902Z,96786.31
2023-03-24T21:08:07.500Z,96784.66
2023-03-24T21:10:38.772Z,96783.94
2023-03-24T21:13:08.811Z,96780.16
2023-03-24T21:15:44.350Z,96774.84
2023-03-24T21:18:17.736Z,96779.88
2023-03-24T21:20:55.562Z,96781.81
2023-03-24T21:23:28.584Z,96792.47
2023-03-24T21:25:57.876Z,96791.97
2023-03-24T21:28:30.869Z,96788.59
2023-03-24T21:31:05.353Z,96793.91
2023-03-24T21:33:35.120Z,96794.16
2023-03-24T21:36:05.895Z,96790.28
2023-03-24T21:38:35.325Z,96792.22
2023-03-24T21:41:03.639Z,96802.88
2023-03-24T21:43:32.167Z,96800.22
2023-03-24T21:46:00.843Z,96805.81
2023-03-24T21:48:29.471Z,96811.56
2023-03-24T21:50:58.809Z,96818.28
2023-03-24T21:53:28.561Z,96829.31
2023-03-24T21:56:04.476Z,96837.72
2023-03-24T21:58:33.594Z,96840.66
2023-03-24T22:01:02.302Z,96851.47
2023-03-24T22:03:30.707Z,96872.00
2023-03-24T22:05:58.911Z,96872.41
2023-03-24T22:08:30.735Z,96856.75
2023-03-24T22:11:00.013Z,96868.00
2023-03-24T22:13:29.438Z,96869.25
2023-03-24T22:15:59.360Z,96879.72
2023-03-24T22:18:29.710Z,96894.06
2023-03-24T22:21:01.019Z,96897.50
2023-03-24T22:23:33.262Z,96897.16
2023-03-24T22:26:04.034Z,96906.63
2023-03-24T22:28:34.575Z,96912.22
2023-03-24T22:31:03.473Z,96913.81
2023-03-24T22:33:31.706Z,96912.16
2023-03-24T22:36:01.525Z,96907.34
2023-03-24T22:38:31.664Z,96913.69
2023-03-24T22:41:00.647Z,96917.81
2023-03-24T22:43:29.725Z,96917.56
2023-03-24T22:45:58.266Z,96920.38
2023-03-24T22:48:26.676Z,96921.94
2023-03-24T22:50:55.086Z,96929.69
2023-03-24T22:53:23.253Z,96932.59
2023-03-24T22:55:53.198Z,96940.78
2023-03-24T22:58:21.691Z,96943.69
2023-03-24T23:00:51.493Z,96937.16
2023-03-24T23:03:19.598Z,96939.19
2023-03-24T23:05:48.170Z,96941.91
2023-03-24T23:08:17.094Z,96942.50
2023-03-24T23:10:46.355Z,96940.19
2023-03-24T23:13:17.022Z,96943.44
2023-03-24T23:15:45.389Z,96948.38
2023-03-24T23:18:13.564Z,96940.72
2023-03-24T23:20:42.882Z,96947.34
2023-03-24T23:23:11.926Z,96949.25
2023-03-24T23:25:43.167Z,96950.38
2023-03-24T23:28:11.640Z,96941.19
2023-03-24T23:30:42.208Z,96950.38
2023-03-24T23:33:15.090Z,96946.97
2023-03-24T23:35:43.463Z,96951.44
2023-03-24T23:38:11.601Z,96953.81
2023-03-24T23:40:39.961Z,96957.19
2023-03-24T23:43:08.094Z,96951.72
2023-03-24T23:45:36.418Z,96966.63
2023-03-24T23:48:07.356Z,96958.78
2023-03-24T23:50:35.600Z,96955.19
2023-03-24T23:53:03.826Z,96960.31
2023-03-24T23:55:31.952Z,96956.31
2023-03-24T23:58:00.104Z,96958.81
